Time;durP1;ratioP1;P1;durP2;ratioP2;P2;SDS_P1;SDS_P2;PMS_P1;PMS_P2;Temp;Humidity;BMP_temperature;BMP_pressure;BME280_temperature;BME280_humidity;BME280_pressure;Samples;Min_cycle;Max_cycle;Signal;HPM_P1;HPM_P2
2022/07/26 00:00:11;;;;;;;3.50;1.10;;;23.90;59.20;;;;;;5031536;28;20053;-74
2022/07/26 00:02:38;;;;;;;2.25;1.20;;;23.90;59.20;;;;;;5029431;28;20057;-74
2022/07/26 00:05:07;;;;;;;3.20;1.35;;;23.90;59.20;;;;;;5032577;28;20049;-74
2022/07/26 00:07:34;;;;;;;3.42;1.58;;;23.90;62.50;;;;;;5013007;28;20050;-74
2022/07/26 00:10:01;;;;;;;3.53;1.40;;;23.80;59.20;;;;;;5029390;28;20071;-74
2022/07/26 00:12:27;;;;;;;4.03;1.50;;;23.80;59.20;;;;;;5031480;28;20053;-74
2022/07/26 00:14:54;;;;;;;3.40;1.50;;;23.90;59.30;;;;;;5031078;28;20139;-74
2022/07/26 00:17:21;;;;;;;3.22;1.40;;;23.80;59.30;;;;;;5031382;28;20061;-74
2022/07/26 00:19:48;;;;;;;2.53;1.30;;;23.90;59.30;;;;;;5031077;28;20128;-74
2022/07/26 00:22:34;;;;;;;3.00;1.20;;;23.80;62.00;;;;;;5031243;28;20057;-74
2022/07/26 00:25:01;;;;;;;4.03;1.30;;;23.80;61.90;;;;;;5029218;28;20163;-74
2022/07/26 00:27:27;;;;;;;2.60;1.30;;;25.90;60.60;;;;;;5031186;28;20059;-74
2022/07/26 00:29:54;;;;;;;2.47;1.20;;;23.70;59.30;;;;;;5032119;28;20063;-74
2022/07/26 00:32:21;;;;;;;3.40;1.50;;;23.60;63.20;;;;;;5031125;28;20141;-74
2022/07/26 00:34:48;;;;;;;3.95;1.30;;;23.80;59.40;;;;;;5030610;28;20053;-74
2022/07/26 00:37:16;;;;;;;2.85;1.40;;;23.80;59.40;;;;;;5031023;28;20057;-74
2022/07/26 00:39:42;;;;;;;2.85;1.35;;;23.80;59.40;;;;;;5029944;28;20053;-74
2022/07/26 00:42:09;;;;;;;2.65;1.40;;;23.20;62.50;;;;;;5032121;28;20069;-74
2022/07/26 00:44:37;;;;;;;2.58;1.40;;;23.70;59.40;;;;;;5030493;28;20061;-74
2022/07/26 00:47:04;;;;;;;3.55;1.48;;;23.80;59.40;;;;;;5030578;28;20510;-74
2022/07/26 00:49:31;;;;;;;3.53;1.25;;;23.70;59.40;;;;;;5030823;28;20128;-74
2022/07/26 00:51:57;;;;;;;1.85;1.13;;;23.90;61.10;;;;;;5030935;28;20505;-74
2022/07/26 00:54:25;;;;;;;2.75;1.25;;;23.70;59.40;;;;;;5012845;28;20633;-74
2022/07/26 00:56:53;;;;;;;2.53;1.30;;;23.70;59.40;;;;;;5010674;28;20172;-74
2022/07/26 00:59:20;;;;;;;3.25;1.40;;;23.70;59.40;;;;;;5010754;28;20050;-74
2022/07/26 01:01:46;;;;;;;2.08;1.38;;;23.50;60.50;;;;;;5010492;28;20053;-74
2022/07/26 01:04:13;;;;;;;4.00;1.75;;;23.70;59.50;;;;;;5010701;28;20050;-74
2022/07/26 01:06:40;;;;;;;3.58;1.40;;;23.60;62.30;;;;;;5010799;28;20049;-74
2022/07/26 01:09:07;;;;;;;3.20;1.63;;;23.70;59.50;;;;;;5026944;28;20132;-74
2022/07/26 01:11:35;;;;;;;3.10;1.42;;;24.70;63.50;;;;;;5029234;28;20053;-74
2022/07/26 01:14:02;;;;;;;2.63;1.42;;;23.70;59.50;;;;;;5031235;28;20057;-74
2022/07/26 01:16:28;;;;;;;3.67;1.40;;;23.70;59.60;;;;;;5030488;28;20533;-74
2022/07/26 01:18:55;;;;;;;2.53;1.20;;;23.70;59.60;;;;;;5030252;28;20151;-74
2022/07/26 01:21:22;;;;;;;2.13;1.20;;;23.70;59.60;;;;;;5030498;28;20483;-74
2022/07/26 01:23:50;;;;;;;3.10;1.38;;;23.70;59.60;;;;;;5028000;28;20137;-74
2022/07/26 01:26:17;;;;;;;3.92;1.45;;;23.70;59.60;;;;;;5030040;28;20072;-74
2022/07/26 01:28:45;;;;;;;4.80;1.38;;;23.60;59.60;;;;;;5013525;28;20045;-74
2022/07/26 01:31:12;;;;;;;4.10;1.50;;;23.60;59.60;;;;;;5030582;28;20061;-74
2022/07/26 01:33:38;;;;;;;4.05;1.35;;;23.70;59.70;;;;;;5032347;28;20068;-74
2022/07/26 01:36:06;;;;;;;1.88;1.10;;;23.60;59.60;;;;;;5034488;28;20140;-74
2022/07/26 01:38:33;;;;;;;3.03;1.55;;;23.50;62.30;;;;;;5031028;28;20045;-74
2022/07/26 01:41:01;;;;;;;3.22;1.45;;;23.60;59.70;;;;;;5014477;28;20068;-74
2022/07/26 01:43:27;;;;;;;3.05;1.38;;;23.60;59.70;;;;;;5014214;28;20089;-74
2022/07/26 01:45:55;;;;;;;3.42;1.42;;;23.60;59.70;;;;;;5014238;28;20140;-74
2022/07/26 01:48:21;;;;;;;4.32;1.45;;;23.50;59.70;;;;;;5014228;28;20141;-74
2022/07/26 01:50:48;;;;;;;4.15;1.40;;;23.50;59.70;;;;;;5014382;28;20050;-74
2022/07/26 01:53:15;;;;;;;3.58;1.50;;;23.50;59.70;;;;;;5016421;28;20050;-74
2022/07/26 01:55:41;;;;;;;3.17;1.50;;;23.50;59.70;;;;;;5017548;28;20498;-74
2022/07/26 01:58:10;;;;;;;3.05;1.20;;;23.50;59.70;;;;;;5033950;28;20140;-74
2022/07/26 02:00:37;;;;;;;3.17;1.52;;;23.50;63.50;;;;;;5033513;28;20054;-74
2022/07/26 02:03:06;;;;;;;2.70;1.40;;;23.50;59.70;;;;;;5034826;28;20131;-74
2022/07/26 02:05:33;;;;;;;3.03;1.20;;;23.70;59.90;;;;;;5034050;28;20053;-74
2022/07/26 02:08:00;;;;;;;2.45;1.30;;;23.50;59.70;;;;;;5030660;28;20049;-74
2022/07/26 02:10:59;;;;;;;2.47;1.30;;;23.50;59.80;;;;;;5013941;28;20561;-74
2022/07/26 02:13:17;;;;;;;2.53;1.10;;;23.50;59.80;;;;;;5013336;28;20054;-74
2022/07/26 02:15:43;;;;;;;2.13;1.20;;;23.50;59.80;;;;;;5014158;28;20064;-74
2022/07/26 02:18:10;;;;;;;1.90;1.17;;;23.50;63.40;;;;;;5015096;28;20081;-74
2022/07/26 02:20:37;;;;;;;3.42;1.40;;;23.40;63.50;;;;;;5013238;28;20476;-74
2022/07/26 02:23:03;;;;;;;3.15;1.42;;;23.50;59.90;;;;;;5018405;28;20149;-74
2022/07/26 02:25:30;;;;;;;2.45;1.15;;;23.00;62.70;;;;;;5033280;28;20055;-74
2022/07/26 02:27:57;;;;;;;3.20;1.25;;;23.40;59.80;;;;;;5033526;28;20059;-74
2022/07/26 02:30:26;;;;;;;4.13;1.98;;;23.40;59.80;;;;;;5033461;28;20498;-74
2022/07/26 02:32:52;;;;;;;3.08;1.25;;;23.20;62.40;;;;;;5032893;28;20434;-74
2022/07/26 02:35:19;;;;;;;2.78;1.30;;;23.40;59.90;;;;;;5033150;28;20063;-74
2022/07/26 02:37:46;;;;;;;4.28;1.45;;;23.40;59.80;;;;;;5028193;28;20049;-74
2022/07/26 02:40:13;;;;;;;3.22;1.42;;;23.40;59.90;;;;;;5013216;28;20085;-74
2022/07/26 02:42:39;;;;;;;2.35;1.40;;;23.60;60.00;;;;;;5014325;28;20058;-74
2022/07/26 02:45:07;;;;;;;3.22;1.45;;;23.40;59.90;;;;;;5012996;28;20141;-74
2022/07/26 02:47:35;;;;;;;2.97;1.30;;;23.40;59.90;;;;;;5014047;28;20422;-74
2022/07/26 02:50:02;;;;;;;2.13;1.27;;;23.40;59.90;;;;;;5013289;28;20052;-74
2022/07/26 02:52:48;;;;;;;2.20;1.10;;;23.40;59.90;;;;;;5020203;28;20064;-74
2022/07/26 02:55:15;;;;;;;2.63;1.23;;;23.40;59.90;;;;;;5033709;28;20053;-74
2022/07/26 02:57:41;;;;;;;3.17;1.30;;;23.60;60.00;;;;;;5032741;28;20057;-74
2022/07/26 03:00:09;;;;;;;3.63;1.33;;;23.40;59.90;;;;;;5032762;28;20060;-74
2022/07/26 03:02:37;;;;;;;2.42;1.40;;;23.30;59.90;;;;;;5033831;28;20053;-74
2022/07/26 03:05:05;;;;;;;1.80;1.15;;;23.30;59.90;;;;;;5033654;28;20133;-74
2022/07/26 03:07:32;;;;;;;2.28;1.40;;;22.30;62.90;;;;;;5025275;28;20049;-74
2022/07/26 03:09:58;;;;;;;3.30;1.50;;;23.30;59.90;;;;;;5012939;28;20065;-74
2022/07/26 03:12:25;;;;;;;3.13;1.20;;;23.30;59.90;;;;;;5012865;28;20058;-74
2022/07/26 03:14:52;;;;;;;2.95;1.30;;;22.10;62.90;;;;;;5012451;28;20062;-74
2022/07/26 03:17:18;;;;;;;3.05;1.40;;;23.20;59.90;;;;;;5012902;28;20082;-74
2022/07/26 03:19:46;;;;;;;3.70;1.35;;;23.30;60.00;;;;;;5013628;28;20050;-74
2022/07/26 03:22:13;;;;;;;2.95;1.30;;;23.30;60.00;;;;;;5019783;28;20644;-74
2022/07/26 03:24:40;;;;;;;2.85;1.30;;;23.20;63.00;;;;;;5032254;28;20554;-74
2022/07/26 03:27:07;;;;;;;2.47;1.23;;;23.30;60.00;;;;;;5032532;28;20524;-74
2022/07/26 03:29:33;;;;;;;3.10;1.40;;;23.30;60.00;;;;;;5033553;28;20075;-74
2022/07/26 03:32:00;;;;;;;3.00;1.20;;;23.50;62.20;;;;;;5032283;28;20061;-74
2022/07/26 03:34:27;;;;;;;4.63;1.50;;;23.30;60.00;;;;;;5031967;28;20053;-74
2022/07/26 03:36:55;;;;;;;2.65;1.48;;;23.30;60.00;;;;;;5032694;28;20049;-74
2022/07/26 03:39:24;;;;;;;3.03;1.20;;;23.30;60.00;;;;;;5031831;28;20049;-74
2022/07/26 03:41:50;;;;;;;2.53;1.17;;;23.50;61.60;;;;;;5032078;28;20566;-74
2022/07/26 03:44:17;;;;;;;1.35;0.90;;;23.20;60.00;;;;;;5032887;28;20052;-74
2022/07/26 03:46:44;;;;;;;2.10;1.30;;;23.40;60.10;;;;;;5031936;28;20077;-74
2022/07/26 03:49:11;;;;;;;3.20;1.20;;;23.20;60.00;;;;;;5032030;28;20136;-74
2022/07/26 03:51:38;;;;;;;3.15;1.30;;;23.30;60.10;;;;;;5027204;28;20080;-74
2022/07/26 03:54:06;;;;;;;2.17;1.13;;;23.20;60.00;;;;;;5011977;28;20108;-74
2022/07/26 03:56:32;;;;;;;2.55;1.30;;;22.90;63.20;;;;;;5011348;28;20149;-74
2022/07/26 03:59:00;;;;;;;1.85;1.40;;;23.10;63.00;;;;;;5013376;28;20133;-74
2022/07/26 04:01:27;;;;;;;1.98;1.23;;;23.20;60.00;;;;;;5011742;28;20060;-74
2022/07/26 04:03:54;;;;;;;2.30;1.27;;;23.20;60.10;;;;;;5012731;28;20141;-76
2022/07/26 04:06:20;;;;;;;1.67;1.00;;;23.20;60.10;;;;;;5018236;28;20045;-76
2022/07/26 04:08:47;;;;;;;2.40;1.23;;;23.10;62.70;;;;;;5029395;28;20057;-76
2022/07/26 04:11:15;;;;;;;1.95;1.08;;;23.20;60.10;;;;;;5011549;28;20060;-77
2022/07/26 04:13:42;;;;;;;1.90;1.10;;;23.30;60.10;;;;;;5011461;28;20049;-76
2022/07/26 04:16:08;;;;;;;2.50;1.10;;;23.20;60.10;;;;;;5011414;28;20056;-77
2022/07/26 04:18:35;;;;;;;3.75;1.02;;;23.20;60.10;;;;;;5011298;28;20132;-76
2022/07/26 04:21:02;;;;;;;2.42;1.20;;;23.20;60.10;;;;;;5011527;28;20068;-76
2022/07/26 04:23:28;;;;;;;3.28;1.20;;;23.20;60.10;;;;;;5015349;28;20046;-76
2022/07/26 04:25:55;;;;;;;3.33;1.23;;;23.30;60.20;;;;;;5010970;28;20470;-76
2022/07/26 04:28:26;;;;;;;1.45;1.00;;;23.30;64.60;;;;;;5010874;28;20162;-76
2022/07/26 04:30:52;;;;;;;2.55;1.10;;;23.10;60.10;;;;;;5008440;28;20054;-76
2022/07/26 04:33:19;;;;;;;2.72;1.38;;;23.20;60.20;;;;;;5010486;28;20046;-76
2022/07/26 04:35:46;;;;;;;2.47;1.00;;;22.90;63.50;;;;;;5012102;28;20088;-76
2022/07/26 04:38:13;;;;;;;2.53;1.20;;;23.10;60.10;;;;;;5011915;28;20133;-77
2022/07/26 04:40:39;;;;;;;2.45;1.10;;;23.20;60.20;;;;;;5010806;28;20476;-76
2022/07/26 04:43:06;;;;;;;3.55;1.63;;;23.20;63.40;;;;;;5010529;28;20127;-76
2022/07/26 04:45:34;;;;;;;2.03;1.13;;;23.10;60.10;;;;;;5011669;28;20125;-77
2022/07/26 04:48:01;;;;;;;1.63;1.20;;;23.10;60.10;;;;;;5010123;28;20057;-77
2022/07/26 04:50:28;;;;;;;1.65;1.00;;;23.20;60.10;;;;;;5009800;28;20104;-77
2022/07/26 04:52:55;;;;;;;1.77;1.20;;;23.20;60.10;;;;;;5011738;28;20053;-77
2022/07/26 04:55:22;;;;;;;1.85;1.25;;;23.20;60.10;;;;;;5010569;28;20084;-77
2022/07/26 04:57:49;;;;;;;2.40;1.10;;;23.60;63.10;;;;;;5011691;28;20402;-76
2022/07/26 05:00:20;;;;;;;2.05;1.25;;;23.10;63.50;;;;;;5011700;28;20495;-77
2022/07/26 05:02:49;;;;;;;2.65;1.10;;;23.20;60.10;;;;;;5011196;28;20054;-73
2022/07/26 05:05:15;;;;;;;1.85;1.10;;;23.20;60.10;;;;;;5010796;28;20049;-73
2022/07/26 05:07:42;;;;;;;3.42;1.20;;;23.20;60.10;;;;;;5023279;28;20053;-73
2022/07/26 05:10:10;;;;;;;2.15;1.10;;;23.00;63.20;;;;;;5031207;28;20073;-73
2022/07/26 05:12:36;;;;;;;1.90;1.13;;;23.20;60.10;;;;;;5031375;28;20490;-73
2022/07/26 05:15:04;;;;;;;2.35;1.23;;;23.20;60.10;;;;;;5030255;28;20049;-74
2022/07/26 05:17:30;;;;;;;2.55;1.00;;;23.20;60.10;;;;;;5030510;28;20573;-74
2022/07/26 05:19:58;;;;;;;2.00;1.23;;;23.20;60.10;;;;;;5031305;28;20060;-74
2022/07/26 05:22:25;;;;;;;1.42;1.08;;;23.20;60.10;;;;;;5016695;28;20136;-74
2022/07/26 05:24:52;;;;;;;2.30;1.15;;;23.20;60.10;;;;;;5010613;28;20084;-74
2022/07/26 05:27:19;;;;;;;2.17;1.30;;;22.80;63.50;;;;;;5010368;28;20136;-74
2022/07/26 05:29:47;;;;;;;1.75;1.02;;;23.20;60.10;;;;;;5010522;28;20058;-74
2022/07/26 05:32:14;;;;;;;2.35;1.08;;;23.20;60.00;;;;;;5011454;28;20054;-74
2022/07/26 05:34:41;;;;;;;2.95;1.25;;;23.20;60.00;;;;;;5011595;28;20046;-73
2022/07/26 05:37:10;;;;;;;1.85;1.00;;;23.20;63.20;;;;;;5018134;28;20126;-74
2022/07/26 05:39:37;;;;;;;1.98;1.13;;;23.30;60.00;;;;;;5030308;28;20054;-74
2022/07/26 05:42:04;;;;;;;1.50;0.98;;;23.20;60.00;;;;;;5029609;28;20052;-73
2022/07/26 05:44:31;;;;;;;2.03;1.00;;;23.50;63.20;;;;;;5029903;28;20060;-73
2022/07/26 05:46:58;;;;;;;1.90;1.20;;;23.20;60.00;;;;;;5031193;28;20077;-74
2022/07/26 05:49:26;;;;;;;1.25;0.93;;;23.20;59.90;;;;;;5029927;28;20084;-73
2022/07/26 05:51:52;;;;;;;2.53;1.00;;;23.60;61.90;;;;;;5029949;28;20136;-73
2022/07/26 05:54:20;;;;;;;2.25;1.23;;;23.20;59.90;;;;;;5029920;28;20049;-74
2022/07/26 05:56:47;;;;;;;1.88;1.10;;;23.20;59.90;;;;;;5030903;28;20395;-74
2022/07/26 05:59:14;;;;;;;2.78;1.10;;;23.20;59.90;;;;;;5030953;28;20051;-73
2022/07/26 06:01:41;;;;;;;2.38;1.10;;;23.40;60.00;;;;;;5030934;28;20045;-74
2022/07/26 06:04:09;;;;;;;1.50;1.00;;;23.30;63.20;;;;;;5029852;28;20486;-74
2022/07/26 06:06:35;;;;;;;1.67;0.90;;;23.20;59.90;;;;;;5029392;28;20160;-74
2022/07/26 06:09:02;;;;;;;1.40;1.00;;;23.20;59.90;;;;;;5029978;28;20449;-74
2022/07/26 06:11:30;;;;;;;1.77;0.98;;;23.20;62.90;;;;;;5029991;28;20136;-74
2022/07/26 06:13:57;;;;;;;1.30;0.95;;;23.20;59.90;;;;;;5029761;28;20486;-74
2022/07/26 06:16:24;;;;;;;1.70;0.80;;;23.20;59.90;;;;;;5031183;28;20087;-74
2022/07/26 06:18:51;;;;;;;1.48;1.00;;;22.80;62.80;;;;;;5031001;28;20137;-74
2022/07/26 06:21:18;;;;;;;1.75;1.00;;;23.20;59.80;;;;;;5030926;28;20049;-74
2022/07/26 06:23:44;;;;;;;1.20;0.80;;;23.20;59.80;;;;;;5014656;28;20049;-74
2022/07/26 06:26:11;;;;;;;1.48;0.95;;;23.50;63.20;;;;;;5013704;28;20189;-74
2022/07/26 06:28:42;;;;;;;1.05;0.80;;;23.20;59.70;;;;;;5014964;28;20061;-74
2022/07/26 06:31:09;;;;;;;2.25;1.10;;;23.20;59.70;;;;;;5013300;28;20053;-74
2022/07/26 06:33:36;;;;;;;1.42;0.98;;;23.20;59.70;;;;;;5013066;28;20054;-74
2022/07/26 06:36:03;;;;;;;1.33;0.88;;;23.30;59.70;;;;;;5013526;28;20142;-74
2022/07/26 06:38:29;;;;;;;1.83;0.90;;;23.30;59.70;;;;;;5030081;28;20147;-73
2022/07/26 06:40:56;;;;;;;1.70;1.00;;;23.30;59.70;;;;;;5032712;28;20049;-73
2022/07/26 06:43:23;;;;;;;2.00;0.98;;;23.30;59.70;;;;;;5033924;28;20050;-73
2022/07/26 06:45:51;;;;;;;1.17;0.80;;;23.30;59.70;;;;;;5033115;28;20491;-73
2022/07/26 06:48:18;;;;;;;1.05;0.82;;;23.30;59.70;;;;;;5033818;28;20056;-74
2022/07/26 06:50:45;;;;;;;1.85;0.93;;;23.20;59.70;;;;;;5032705;28;20140;-73
2022/07/26 06:53:12;;;;;;;1.52;0.88;;;23.30;59.70;;;;;;5015302;28;20060;-74
2022/07/26 06:55:38;;;;;;;2.30;1.23;;;23.30;63.10;;;;;;5012407;28;20108;-73
2022/07/26 06:58:05;;;;;;;1.30;0.85;;;23.20;59.60;;;;;;5013877;28;20432;-73
2022/07/26 07:00:32;;;;;;;1.48;0.80;;;23.30;59.70;;;;;;5012481;28;20046;-73
2022/07/26 07:03:01;;;;;;;1.80;0.80;;;23.30;63.50;;;;;;5012460;28;20526;-73
2022/07/26 07:05:28;;;;;;;1.45;0.80;;;23.30;59.60;;;;;;5012386;28;20137;-73
2022/07/26 07:07:55;;;;;;;1.02;0.70;;;23.30;62.80;;;;;;5013987;28;20053;-74
2022/07/26 07:10:21;;;;;;;1.48;0.90;;;23.50;59.70;;;;;;5012743;28;20041;-73
2022/07/26 07:12:48;;;;;;;3.00;1.20;;;23.30;59.60;;;;;;5012655;28;20061;-73
2022/07/26 07:15:15;;;;;;;2.70;0.90;;;23.30;62.60;;;;;;5012599;28;20414;-73
2022/07/26 07:17:42;;;;;;;0.98;0.80;;;23.30;59.60;;;;;;5012148;28;20059;-73
2022/07/26 07:20:12;;;;;;;1.33;0.90;;;23.50;62.50;;;;;;5012747;28;20069;-73
2022/07/26 07:22:39;;;;;;;2.05;1.05;;;23.30;59.50;;;;;;5012347;28;20050;-73
2022/07/26 07:25:06;;;;;;;1.52;0.93;;;23.30;59.50;;;;;;5018717;28;20061;-73
2022/07/26 07:27:32;;;;;;;2.10;0.75;;;23.40;59.50;;;;;;5032407;28;20136;-73
2022/07/26 07:29:59;;;;;;;1.63;0.90;;;23.50;59.50;;;;;;5031217;28;20057;-73
2022/07/26 07:32:26;;;;;;;1.50;1.00;;;23.50;59.50;;;;;;5032155;28;20046;-73
2022/07/26 07:34:52;;;;;;;1.77;0.93;;;23.50;59.40;;;;;;5033189;28;20469;-73
2022/07/26 07:37:21;;;;;;;1.77;0.90;;;23.50;59.30;;;;;;5030645;28;20129;-73
2022/07/26 07:39:47;;;;;;;3.67;1.00;;;23.50;59.30;;;;;;5012658;28;20050;-73
2022/07/26 07:42:14;;;;;;;2.13;0.95;;;23.60;59.30;;;;;;5011943;28;20057;-73
2022/07/26 07:44:41;;;;;;;2.17;1.00;;;23.60;59.20;;;;;;5011988;28;20056;-73
2022/07/26 07:47:08;;;;;;;1.73;0.90;;;23.50;62.60;;;;;;5013068;28;20133;-73
2022/07/26 07:49:35;;;;;;;1.58;0.90;;;23.60;59.20;;;;;;5012365;28;20108;-73
2022/07/26 07:52:02;;;;;;;2.40;0.88;;;23.40;60.90;;;;;;4995988;28;20060;-73
2022/07/26 07:54:30;;;;;;;1.73;0.90;;;23.60;59.10;;;;;;5011557;28;20410;-73
2022/07/26 07:56:57;;;;;;;2.05;0.90;;;23.60;59.00;;;;;;5028213;28;20064;-73
2022/07/26 07:59:24;;;;;;;2.30;0.90;;;23.60;59.00;;;;;;5024656;28;20598;-74
2022/07/26 08:01:50;;;;;;;1.52;0.93;;;23.40;60.90;;;;;;5010793;28;20148;-73
2022/07/26 08:04:18;;;;;;;1.85;1.13;;;23.70;59.00;;;;;;5012608;28;20088;-74
2022/07/26 08:06:44;;;;;;;1.80;0.80;;;24.90;63.00;;;;;;5022894;28;20502;-74
2022/07/26 08:09:11;;;;;;;1.50;1.00;;;23.90;58.90;;;;;;5013244;28;20057;-74
2022/07/26 08:11:39;;;;;;;1.67;0.90;;;23.90;58.80;;;;;;5022754;28;20498;-74
2022/07/26 08:14:06;;;;;;;1.80;1.00;;;23.90;58.70;;;;;;5011167;28;20061;-74
2022/07/26 08:16:33;;;;;;;2.30;1.00;;;23.90;58.60;;;;;;5011355;28;20065;-73
2022/07/26 08:18:59;;;;;;;2.03;1.00;;;24.00;58.60;;;;;;5011157;28;20076;-74
2022/07/26 08:21:26;;;;;;;1.52;0.80;;;24.00;58.50;;;;;;4994554;28;20077;-74
2022/07/26 08:23:53;;;;;;;2.95;0.98;;;24.20;62.10;;;;;;5010802;28;20064;-74
2022/07/26 08:26:20;;;;;;;1.42;0.80;;;24.10;58.40;;;;;;5010845;28;20507;-74
2022/07/26 08:28:48;;;;;;;1.88;0.90;;;24.20;58.30;;;;;;5008206;28;20053;-74
2022/07/26 08:31:15;;;;;;;1.20;1.00;;;24.30;58.20;;;;;;5010081;28;20125;-74
2022/07/26 08:33:41;;;;;;;2.33;1.00;;;24.30;58.10;;;;;;5005058;28;20077;-74
2022/07/26 08:36:08;;;;;;;2.15;0.82;;;24.30;58.00;;;;;;5011264;28;20060;-74
2022/07/26 08:38:35;;;;;;;1.00;0.80;;;24.30;61.60;;;;;;5011277;28;20140;-74
2022/07/26 08:41:03;;;;;;;2.15;0.93;;;24.40;57.90;;;;;;5010213;28;20050;-75
2022/07/26 08:43:30;;;;;;;1.40;0.90;;;24.50;57.90;;;;;;5010895;28;20132;-74
2022/07/26 08:46:01;;;;;;;1.17;0.93;;;24.50;57.80;;;;;;5007707;28;20098;-74
2022/07/26 08:48:27;;;;;;;1.52;1.00;;;23.60;60.20;;;;;;5010535;28;20133;-74
2022/07/26 08:50:57;;;;;;;1.50;0.80;;;24.50;57.70;;;;;;5009332;28;20045;-74
2022/07/26 08:53:24;;;;;;;2.58;0.70;;;24.50;57.70;;;;;;5010694;28;20058;-73
2022/07/26 08:55:55;;;;;;;2.15;1.05;;;24.40;57.60;;;;;;5010762;28;20064;-74
2022/07/26 08:58:22;;;;;;;1.77;1.00;;;24.40;57.60;;;;;;5010803;28;20428;-75
2022/07/26 09:01:05;;;;;;;1.75;0.77;;;24.40;57.60;;;;;;5010640;28;20057;-73
2022/07/26 09:03:32;;;;;;;1.15;0.80;;;24.40;57.50;;;;;;5010653;28;20406;-74
2022/07/26 09:06:11;;;;;;;1.95;0.90;;;24.40;57.60;;;;;;5010722;28;20058;-74
2022/07/26 09:08:39;;;;;;;2.90;0.80;;;24.40;57.60;;;;;;5009816;28;20057;-74
2022/07/26 09:11:28;;;;;;;2.10;0.95;;;24.40;57.60;;;;;;5026047;28;20056;-74
2022/07/26 09:13:56;;;;;;;1.85;0.90;;;24.30;57.50;;;;;;5007676;28;20045;-74
2022/07/26 09:16:24;;;;;;;1.20;0.88;;;23.90;61.30;;;;;;5009707;28;20130;-74
2022/07/26 09:18:51;;;;;;;3.17;0.90;;;24.30;57.60;;;;;;4993808;28;20645;-74
2022/07/26 09:21:29;;;;;;;1.25;0.90;;;24.30;57.60;;;;;;5010839;28;20112;-74
2022/07/26 09:23:56;;;;;;;0.98;0.77;;;24.30;57.60;;;;;;5008715;28;20137;-74
2022/07/26 09:26:22;;;;;;;1.95;0.80;;;24.30;57.60;;;;;;5010078;28;20185;-74
2022/07/26 09:29:02;;;;;;;1.85;0.85;;;24.30;57.60;;;;;;5009874;28;20629;-74
2022/07/26 09:31:30;;;;;;;1.15;0.80;;;24.30;57.60;;;;;;5007309;28;20132;-73
2022/07/26 09:33:58;;;;;;;1.92;0.90;;;24.30;57.60;;;;;;5009686;28;20064;-73
2022/07/26 09:36:25;;;;;;;1.35;0.77;;;24.30;57.60;;;;;;5009830;28;20062;-73
2022/07/26 09:38:53;;;;;;;1.95;0.70;;;24.30;57.60;;;;;;5009760;28;20057;-74
2022/07/26 09:41:20;;;;;;;1.48;0.65;;;24.30;57.50;;;;;;5009553;28;20049;-74
2022/07/26 09:43:47;;;;;;;1.42;0.80;;;24.40;57.60;;;;;;5010582;28;20106;-73
2022/07/26 09:46:14;;;;;;;1.27;0.77;;;24.20;61.60;;;;;;5009852;28;20056;-73
2022/07/26 09:48:42;;;;;;;1.90;0.80;;;24.40;57.50;;;;;;5023273;28;20058;-73
2022/07/26 09:51:09;;;;;;;1.30;0.88;;;24.40;57.50;;;;;;5011142;28;20096;-74
2022/07/26 09:53:39;;;;;;;2.15;0.90;;;24.40;57.50;;;;;;5010442;28;20058;-74
2022/07/26 09:56:07;;;;;;;1.00;0.70;;;24.40;57.50;;;;;;5014368;28;20089;-73
2022/07/26 09:58:34;;;;;;;1.58;0.75;;;24.40;57.50;;;;;;5015758;28;20049;-74
2022/07/26 10:01:01;;;;;;;1.20;0.70;;;24.30;57.40;;;;;;5010990;28;20049;-74
2022/07/26 10:03:29;;;;;;;2.28;1.13;;;24.30;57.40;;;;;;5013109;28;20060;-74
2022/07/26 10:05:58;;;;;;;1.67;0.90;;;24.30;57.50;;;;;;5015628;28;20054;-74
2022/07/26 10:08:24;;;;;;;1.55;0.90;;;24.30;57.50;;;;;;5018611;28;20057;-74
2022/07/26 10:10:54;;;;;;;1.30;0.95;;;24.30;57.50;;;;;;5033455;28;20526;-74
2022/07/26 10:13:21;;;;;;;0.70;0.70;;;24.20;57.50;;;;;;5027861;28;20044;-73
2022/07/26 10:15:48;;;;;;;2.35;0.70;;;24.20;57.60;;;;;;5033429;28;20513;-73
2022/07/26 10:18:42;;;;;;;1.48;0.82;;;24.20;57.70;;;;;;5021881;28;20049;-76
2022/07/26 10:21:20;;;;;;;2.08;0.90;;;24.20;57.60;;;;;;5016814;28;20407;-73
2022/07/26 10:23:48;;;;;;;1.83;0.80;;;24.20;57.80;;;;;;5020636;28;20148;-74
2022/07/26 10:26:36;;;;;;;2.55;0.90;;;24.20;57.90;;;;;;5015453;28;20566;-73
2022/07/26 10:29:19;;;;;;;7.18;1.10;;;24.20;57.90;;;;;;5014109;28;20089;-74
2022/07/26 10:31:46;;;;;;;3.50;0.98;;;24.20;57.60;;;;;;5014393;28;20125;-74
2022/07/26 10:34:28;;;;;;;2.35;0.80;;;24.10;61.10;;;;;;5013427;28;20653;-74
2022/07/26 10:36:59;;;;;;;2.60;0.85;;;24.10;58.00;;;;;;5014679;28;20058;-74
2022/07/26 10:39:25;;;;;;;3.95;1.17;;;24.10;58.00;;;;;;5032946;28;20092;-74
2022/07/26 10:41:57;;;;;;;3.42;1.00;;;23.50;59.10;;;;;;5029209;28;20054;-74
2022/07/26 10:44:25;;;;;;;2.42;0.93;;;24.10;57.90;;;;;;5012664;28;20144;-74
2022/07/26 10:47:03;;;;;;;2.33;0.90;;;24.10;57.90;;;;;;5013997;28;20442;-75
2022/07/26 10:49:31;;;;;;;2.15;1.00;;;24.10;57.80;;;;;;5013838;28;20053;-74
2022/07/26 10:52:07;;;;;;;1.98;1.00;;;24.20;59.80;;;;;;5013715;28;20137;-74
2022/07/26 10:55:13;;;;;;;2.35;1.00;;;24.20;57.90;;;;;;5012726;28;20057;-73
2022/07/26 10:57:40;;;;;;;3.25;1.00;;;24.30;62.10;;;;;;5010677;28;20056;-73
2022/07/26 11:00:16;;;;;;;2.10;0.95;;;24.10;57.90;;;;;;5012561;28;20048;-75
2022/07/26 11:02:43;;;;;;;2.40;0.70;;;24.10;57.80;;;;;;5011311;28;20104;-74
2022/07/26 11:05:14;;;;;;;1.50;0.77;;;24.20;61.20;;;;;;5016112;28;20058;-73
2022/07/26 11:07:53;;;;;;;1.60;1.00;;;24.10;57.80;;;;;;5013290;28;20667;-73
2022/07/26 11:10:24;;;;;;;4.22;1.35;;;24.20;57.80;;;;;;5014963;28;20055;-73
2022/07/26 11:13:05;;;;;;;5.07;0.98;;;24.10;57.80;;;;;;5012285;28;20042;-73
2022/07/26 11:15:32;;;;;;;2.92;0.90;;;24.40;58.00;;;;;;5012525;28;20057;-73
2022/07/26 11:18:23;;;;;;;3.58;0.90;;;24.00;61.80;;;;;;5011976;28;20064;-74
2022/07/26 11:20:52;;;;;;;5.70;1.58;;;24.10;57.80;;;;;;5012620;28;20141;-73
2022/07/26 11:23:29;;;;;;;4.00;1.02;;;24.10;58.00;;;;;;5021459;28;20045;-73
2022/07/26 11:26:10;;;;;;;2.50;1.00;;;24.10;57.90;;;;;;5021662;28;20046;-74
2022/07/26 11:28:54;;;;;;;2.45;1.05;;;24.00;60.80;;;;;;5012735;28;20567;-74
2022/07/26 11:31:22;;;;;;;4.18;1.17;;;25.30;62.40;;;;;;5000328;28;20112;-74
2022/07/26 11:33:49;;;;;;;6.75;1.35;;;24.10;61.10;;;;;;5011670;28;20425;-76
2022/07/26 11:36:16;;;;;;;7.38;1.55;;;24.10;57.90;;;;;;5012025;28;20137;-73
2022/07/26 11:38:49;;;;;;;13.55;2.95;;;24.10;57.90;;;;;;5027569;28;20149;-74
2022/07/26 11:41:18;;;;;;;6.70;1.75;;;24.20;57.90;;;;;;5034012;28;20045;-73
2022/07/26 11:43:45;;;;;;;11.02;2.05;;;24.20;57.90;;;;;;5031107;28;20393;-74
2022/07/26 11:46:12;;;;;;;9.30;1.85;;;24.20;57.90;;;;;;5023356;28;20133;-73
2022/07/26 11:48:44;;;;;;;6.88;2.03;;;24.20;57.80;;;;;;5011851;28;20060;-73
2022/07/26 11:51:11;;;;;;;13.00;2.13;;;24.20;57.80;;;;;;5012242;28;20108;-74
2022/07/26 11:53:38;;;;;;;9.18;2.60;;;24.20;57.70;;;;;;5011489;28;20133;-74
2022/07/26 11:56:17;;;;;;;10.70;2.28;;;24.30;57.70;;;;;;5018656;28;20364;-74
2022/07/26 11:58:44;;;;;;;9.35;2.17;;;24.30;57.70;;;;;;4992434;28;20065;-74
2022/07/26 12:01:12;;;;;;;6.93;2.65;;;23.40;60.20;;;;;;4992579;28;20065;-74
2022/07/26 12:03:39;;;;;;;9.98;2.28;;;24.30;57.70;;;;;;4992795;28;20054;-73
2022/07/26 12:06:07;;;;;;;6.32;2.00;;;24.10;57.60;;;;;;5005685;28;20148;-74
2022/07/26 12:08:41;;;;;;;7.68;2.33;;;24.30;57.60;;;;;;5031519;28;20545;-74
2022/07/26 12:11:08;;;;;;;11.97;2.43;;;24.30;57.60;;;;;;5031248;28;20063;-74
2022/07/26 12:13:53;;;;;;;6.90;2.00;;;24.30;57.60;;;;;;5032371;28;20053;-73
2022/07/26 12:16:37;;;;;;;6.10;2.10;;;24.30;57.60;;;;;;5022719;28;20553;-74
2022/07/26 12:19:04;;;;;;;10.40;2.17;;;25.30;61.90;;;;;;5011575;28;20064;-74
2022/07/26 12:21:41;;;;;;;8.93;2.30;;;24.20;57.60;;;;;;5011488;28;20064;-73
2022/07/26 12:24:08;;;;;;;6.35;2.40;;;24.30;57.50;;;;;;5010721;28;20054;-74
2022/07/26 12:26:35;;;;;;;7.78;2.28;;;24.30;57.50;;;;;;5021107;28;20406;-74
2022/07/26 12:31:44;;;;;;;6.07;2.17;;;24.30;57.40;;;;;;5029891;28;20053;-74
2022/07/26 12:34:10;;;;;;;6.32;1.90;;;24.40;61.70;;;;;;5030522;28;20421;-74
2022/07/26 12:36:37;;;;;;;8.45;2.08;;;24.40;57.50;;;;;;5020681;28;20136;-74
2022/07/26 12:39:04;;;;;;;7.10;2.15;;;24.40;57.40;;;;;;5011558;28;20132;-73
2022/07/26 12:41:35;;;;;;;5.82;2.03;;;24.40;57.40;;;;;;5011157;28;20054;-74
2022/07/26 12:44:03;;;;;;;4.53;2.08;;;24.40;57.40;;;;;;5010759;28;20045;-74
2022/07/26 12:46:31;;;;;;;6.30;1.75;;;24.40;57.40;;;;;;5019880;28;20059;-74
2022/07/26 12:48:58;;;;;;;7.00;2.30;;;24.40;57.30;;;;;;5031023;28;20256;-74
2022/07/26 12:51:25;;;;;;;4.55;1.98;;;24.40;60.70;;;;;;5030594;28;20132;-74
2022/07/26 12:53:52;;;;;;;8.00;1.83;;;24.40;57.30;;;;;;5030147;28;20121;-74